Time;durP1;ratioP1;P1;durP2;ratioP2;P2;SDS_P1;SDS_P2;PMS_P1;PMS_P2;Temp;Humidity;BMP_temperature;BMP_pressure;BME280_temperature;BME280_humidity;BME280_pressure;Samples;Min_cycle;Max_cycle;Signal;HPM_P1;HPM_P2
2023/07/01 00:01:36;;;;;;;39.55;23.10;;;;;;;16.78;100.00;99693.91;5012818;28;20029;-74
2023/07/01 00:04:03;;;;;;;37.00;22.98;;;;;;;16.80;100.00;99693.34;4977493;28;20026;-73
2023/07/01 00:06:28;;;;;;;36.80;23.88;;;;;;;16.80;100.00;99702.00;5011258;28;20034;-73
2023/07/01 00:08:54;;;;;;;38.15;24.77;;;;;;;16.81;100.00;99700.69;5012667;28;20475;-73
2023/07/01 00:11:21;;;;;;;45.67;26.02;;;;;;;16.84;100.00;99699.59;5016850;28;20038;-75
2023/07/01 00:13:47;;;;;;;42.03;26.02;;;;;;;16.84;100.00;99700.38;5000161;28;20138;-74
2023/07/01 00:16:16;;;;;;;49.58;25.83;;;;;;;16.82;100.00;99687.81;5001946;28;20157;-75
2023/07/01 00:18:43;;;;;;;43.53;26.27;;;;;;;16.84;100.00;99693.81;5020063;28;20022;-74
2023/07/01 00:21:10;;;;;;;42.70;27.88;;;;;;;16.84;100.00;99694.59;5020128;28;20030;-75
2023/07/01 00:23:35;;;;;;;44.88;26.48;;;;;;;16.81;100.00;99689.13;4986269;28;20061;-73
2023/07/01 00:26:02;;;;;;;50.42;28.10;;;;;;;16.78;100.00;99688.13;5019625;28;20419;-74
2023/07/01 00:28:32;;;;;;;47.22;27.42;;;;;;;16.77;100.00;99691.56;5019489;28;20498;-73
2023/07/01 00:30:58;;;;;;;45.22;27.55;;;;;;;16.76;100.00;99685.03;5019963;28;20018;-74
2023/07/01 00:33:24;;;;;;;50.17;28.67;;;;;;;16.75;100.00;99694.22;5020138;28;20021;-74
2023/07/01 00:35:50;;;;;;;44.38;27.83;;;;;;;16.74;100.00;99699.25;5001933;28;20036;-75
2023/07/01 00:38:17;;;;;;;51.15;28.80;;;;;;;16.68;100.00;99689.88;5019507;28;20069;-73
2023/07/01 00:40:42;;;;;;;50.70;29.55;;;;;;;16.70;100.00;99698.00;5019809;28;20034;-73
2023/07/01 00:43:08;;;;;;;50.17;28.35;;;;;;;16.66;100.00;99700.41;5019762;28;20025;-74
2023/07/01 00:45:37;;;;;;;53.08;29.55;;;;;;;16.65;100.00;99699.63;5019658;28;20022;-75
2023/07/01 00:48:02;;;;;;;47.88;29.65;;;;;;;16.63;100.00;99689.97;5019746;28;20190;-73
2023/07/01 00:50:28;;;;;;;46.28;30.02;;;;;;;16.59;100.00;99693.19;5019789;28;20485;-73
2023/07/01 00:52:56;;;;;;;50.28;30.10;;;;;;;16.58;100.00;99694.53;5019364;28;20021;-74
2023/07/01 00:55:22;;;;;;;42.85;29.35;;;;;;;16.51;100.00;99690.13;5019774;28;20182;-75
2023/07/01 00:57:48;;;;;;;46.15;29.13;;;;;;;16.53;100.00;99687.50;5019308;28;20025;-73
2023/07/01 01:00:15;;;;;;;42.58;28.48;;;;;;;16.55;100.00;99687.72;5018644;28;20029;-74
2023/07/01 01:02:53;;;;;;;44.10;28.65;;;;;;;16.56;100.00;99691.41;5019720;28;20379;-73
2023/07/01 01:05:24;;;;;;;48.17;28.25;;;;;;;16.55;100.00;99687.72;5019643;28;20026;-74
2023/07/01 01:08:03;;;;;;;43.13;26.50;;;;;;;16.55;100.00;99684.06;4986026;28;20033;-74
2023/07/01 01:10:39;;;;;;;41.35;26.92;;;;;;;16.54;100.00;99673.88;5019240;28;20026;-73
2023/07/01 01:13:06;;;;;;;47.20;27.33;;;;;;;16.55;100.00;99679.06;5002060;28;20438;-74
2023/07/01 01:15:32;;;;;;;43.53;26.75;;;;;;;16.55;100.00;99675.41;5001718;28;20084;-74
2023/07/01 01:18:02;;;;;;;38.13;26.58;;;;;;;16.54;100.00;99668.09;5019426;28;20049;-73
2023/07/01 01:20:30;;;;;;;44.42;25.55;;;;;;;16.53;100.00;99661.56;4968345;28;20076;-73
2023/07/01 01:22:57;;;;;;;39.13;24.05;;;;;;;16.54;100.00;99659.44;4998748;28;20018;-74
2023/07/01 01:25:35;;;;;;;39.30;23.48;;;;;;;16.56;100.00;99659.66;4999030;28;20054;-74
2023/07/01 01:28:03;;;;;;;36.00;23.30;;;;;;;16.55;100.00;99661.78;4982038;28;20076;-74
2023/07/01 01:30:33;;;;;;;38.70;23.90;;;;;;;16.58;100.00;99667.78;4982448;28;20028;-75
2023/07/01 01:32:59;;;;;;;41.47;23.33;;;;;;;16.57;100.00;99664.09;5015346;28;20030;-74
2023/07/01 01:35:26;;;;;;;37.42;23.90;;;;;;;16.58;100.00;99668.56;4997386;28;20389;-73
2023/07/01 01:38:09;;;;;;;37.20;24.38;;;;;;;16.60;100.00;99670.91;5015069;28;20045;-73
2023/07/01 01:40:47;;;;;;;39.60;23.70;;;;;;;16.58;100.00;99674.31;5014789;28;20030;-74
2023/07/01 01:43:35;;;;;;;41.05;25.73;;;;;;;16.60;100.00;99670.91;5014851;28;20462;-74
2023/07/01 01:46:02;;;;;;;41.13;25.70;;;;;;;16.57;100.00;99669.88;5014713;28;20387;-74
2023/07/01 01:48:29;;;;;;;40.30;26.48;;;;;;;16.59;100.00;99669.34;5014715;28;20026;-73
2023/07/01 01:50:56;;;;;;;41.38;25.05;;;;;;;16.63;100.00;99667.69;5013534;28;20018;-72
2023/07/01 01:53:24;;;;;;;37.42;24.50;;;;;;;16.57;100.00;99655.44;5013477;28;20088;-73
2023/07/01 01:55:50;;;;;;;40.47;25.02;;;;;;;16.67;100.00;99664.47;5013347;28;20256;-74
2023/07/01 01:58:16;;;;;;;30.50;21.90;;;;;;;16.75;100.00;99676.91;5014243;28;20356;-73
2023/07/01 02:01:07;;;;;;;35.20;22.48;;;;;;;16.74;100.00;99675.38;5014457;28;20483;-73
2023/07/01 02:03:32;;;;;;;29.08;21.02;;;;;;;16.74;100.00;99676.16;5014425;28;20076;-74
2023/07/01 02:06:11;;;;;;;31.70;20.70;;;;;;;16.74;100.00;99676.16;5014349;28;20034;-75
2023/07/01 02:08:37;;;;;;;29.10;19.95;;;;;;;16.77;100.00;99677.91;5012935;28;20029;-72
2023/07/01 02:11:03;;;;;;;29.58;20.85;;;;;;;16.80;100.00;99676.81;5015557;28;20026;-74
2023/07/01 02:13:30;;;;;;;35.15;23.00;;;;;;;16.83;100.00;99683.59;5015591;28;20026;-75
2023/07/01 02:15:56;;;;;;;34.10;22.20;;;;;;;16.85;100.00;99686.69;5015493;28;20036;-73
2023/07/01 02:18:23;;;;;;;30.25;21.15;;;;;;;16.93;100.00;99685.50;5015362;28;20068;-73
2023/07/01 02:20:50;;;;;;;31.23;19.80;;;;;;;16.97;100.00;99691.72;5015334;28;20077;-75
2023/07/01 02:23:16;;;;;;;28.50;19.05;;;;;;;16.99;100.00;99689.03;5015067;28;20041;-74
2023/07/01 02:25:43;;;;;;;35.95;19.45;;;;;;;16.97;100.00;99685.16;5013834;28;20490;-74
2023/07/01 02:28:09;;;;;;;32.10;19.25;;;;;;;16.96;100.00;99687.28;5013438;28;20045;-74
2023/07/01 02:30:35;;;;;;;37.70;19.88;;;;;;;16.95;100.00;99690.72;5013609;28;20065;-74
2023/07/01 02:33:02;;;;;;;30.05;19.70;;;;;;;16.95;100.00;99690.72;5013897;28;20032;-75
2023/07/01 02:35:27;;;;;;;28.90;19.30;;;;;;;16.96;100.00;99695.16;5013624;28;20112;-73
2023/07/01 02:37:53;;;;;;;32.25;19.88;;;;;;;17.01;100.00;99687.72;5014634;28;20523;-74
2023/07/01 02:40:19;;;;;;;29.02;18.98;;;;;;;17.05;100.00;99688.16;5014777;28;20041;-73
2023/07/01 02:42:45;;;;;;;35.90;20.33;;;;;;;17.09;100.00;99686.53;5014124;28;20379;-75
2023/07/01 02:45:12;;;;;;;34.40;20.00;;;;;;;17.14;100.00;99681.97;5014985;28;20033;-73
2023/07/01 02:47:38;;;;;;;30.45;19.90;;;;;;;17.17;100.00;99678.75;5013483;28;20029;-74
2023/07/01 02:50:05;;;;;;;30.50;20.33;;;;;;;17.22;100.00;99685.75;5014696;28;20033;-76
2023/07/01 02:52:32;;;;;;;33.67;18.48;;;;;;;17.27;100.00;99679.09;5013950;28;20037;-74
2023/07/01 02:54:58;;;;;;;30.73;18.13;;;;;;;17.29;100.00;99670.66;5013533;28;20432;-73
2023/07/01 02:57:25;;;;;;;30.60;18.92;;;;;;;17.30;100.00;99678.75;5014230;28;20395;-75
2023/07/01 02:59:51;;;;;;;28.05;19.92;;;;;;;17.35;100.00;99677.84;5014731;28;20046;-73
2023/07/01 03:02:17;;;;;;;31.80;20.10;;;;;;;17.38;100.00;99681.75;5014499;28;20041;-74
2023/07/01 03:04:43;;;;;;;34.38;19.27;;;;;;;17.44;100.00;99681.66;5014543;28;20025;-74
2023/07/01 03:07:10;;;;;;;32.72;19.17;;;;;;;17.47;100.00;99672.66;5014200;28;20494;-74
2023/07/01 03:09:37;;;;;;;30.80;19.00;;;;;;;17.53;100.00;99672.56;5014525;28;20018;-75
2023/07/01 03:12:03;;;;;;;32.17;18.40;;;;;;;17.58;100.00;99671.66;5014554;28;20033;-74
2023/07/01 03:14:29;;;;;;;28.65;18.52;;;;;;;17.61;100.00;99674.22;5012911;28;20144;-74
2023/07/01 03:16:57;;;;;;;31.40;18.98;;;;;;;17.62;100.00;99678.66;5013923;28;20065;-73
2023/07/01 03:19:23;;;;;;;26.48;17.13;;;;;;;17.63;100.00;99685.22;5014029;28;20120;-73
2023/07/01 03:21:50;;;;;;;26.73;18.70;;;;;;;17.67;100.00;99676.97;5014292;28;20033;-74
2023/07/01 03:24:15;;;;;;;28.67;17.63;;;;;;;17.64;100.00;99673.09;5014350;28;20030;-74
2023/07/01 03:26:43;;;;;;;29.63;18.55;;;;;;;17.64;100.00;99670.19;5014007;28;20029;-73
2023/07/01 03:29:09;;;;;;;26.42;17.15;;;;;;;17.55;100.00;99656.22;5013649;28;20149;-74
2023/07/01 03:31:35;;;;;;;29.73;18.10;;;;;;;17.67;100.00;99679.88;5013788;28;20069;-74
2023/07/01 03:34:02;;;;;;;26.90;17.33;;;;;;;17.66;100.00;99678.31;5013692;28;20033;-73
2023/07/01 03:36:28;;;;;;;32.22;18.10;;;;;;;17.69;100.00;99683.75;5014061;28;20422;-75
2023/07/01 03:38:58;;;;;;;31.35;18.23;;;;;;;17.71;100.00;99680.31;5013588;28;20164;-75
2023/07/01 03:41:24;;;;;;;28.65;17.45;;;;;;;17.71;100.00;99680.31;5013390;28;20467;-74
2023/07/01 03:43:49;;;;;;;28.05;18.20;;;;;;;17.74;100.00;99684.97;5013405;28;20041;-75
2023/07/01 03:46:16;;;;;;;27.88;17.10;;;;;;;17.73;100.00;99684.19;5013686;28;20030;-74
2023/07/01 03:48:43;;;;;;;28.58;17.50;;;;;;;17.73;100.00;99680.53;5012146;28;20029;-74
2023/07/01 03:51:10;;;;;;;28.10;18.13;;;;;;;17.63;100.00;99677.31;5013425;28;20100;-74
2023/07/01 03:53:36;;;;;;;28.48;18.00;;;;;;;17.73;100.00;99687.06;5013458;28;20036;-74
2023/07/01 03:56:02;;;;;;;28.92;17.58;;;;;;;17.71;100.00;99683.19;5013774;28;20040;-73
2023/07/01 03:58:28;;;;;;;25.55;17.55;;;;;;;17.67;100.00;99686.44;5011620;28;20125;-75
2023/07/01 04:00:53;;;;;;;31.90;17.77;;;;;;;17.67;100.00;99691.44;5013713;28;20513;-74
2023/07/01 04:03:23;;;;;;;31.90;17.85;;;;;;;17.68;100.00;99685.09;5017742;28;20026;-73
2023/07/01 04:05:51;;;;;;;23.65;16.23;;;;;;;17.72;100.00;99681.88;5017109;28;20026;-74
2023/07/01 04:08:17;;;;;;;28.77;18.17;;;;;;;17.74;100.00;99690.75;5014048;28;20034;-74
2023/07/01 04:10:43;;;;;;;28.17;16.65;;;;;;;17.75;100.00;99678.63;5010595;28;20053;-73
2023/07/01 04:13:13;;;;;;;28.75;18.02;;;;;;;17.75;100.00;99675.75;5013515;28;20029;-73
2023/07/01 04:15:39;;;;;;;31.63;18.02;;;;;;;17.74;100.00;99667.63;5012309;28;20030;-73
2023/07/01 04:18:07;;;;;;;28.48;17.73;;;;;;;17.86;100.00;99680.50;5011938;28;20026;-72
2023/07/01 04:20:33;;;;;;;31.73;18.67;;;;;;;17.89;100.00;99675.69;5013506;28;20041;-72
2023/07/01 04:22:59;;;;;;;27.95;17.98;;;;;;;17.95;100.00;99670.56;4995778;28;20052;-75
2023/07/01 04:25:26;;;;;;;30.92;17.13;;;;;;;17.96;100.00;99672.13;5011906;28;20470;-73
2023/07/01 04:27:51;;;;;;;31.77;18.95;;;;;;;18.00;100.00;99670.44;5011848;28;20100;-73
2023/07/01 04:30:18;;;;;;;29.95;18.58;;;;;;;18.01;100.00;99665.44;5012618;28;20077;-73
2023/07/01 04:32:44;;;;;;;29.13;18.25;;;;;;;18.00;100.00;99656.00;5013189;28;20026;-72
2023/07/01 04:35:11;;;;;;;34.72;17.55;;;;;;;18.01;100.00;99665.44;5011409;28;20038;-73
2023/07/01 04:37:39;;;;;;;30.92;17.45;;;;;;;18.05;100.00;99665.88;5011734;28;20380;-73
2023/07/01 04:40:06;;;;;;;32.40;17.95;;;;;;;18.04;100.00;99665.09;5012979;28;20455;-74
2023/07/01 04:42:52;;;;;;;30.52;18.52;;;;;;;18.09;100.00;99666.31;5013423;28;20034;-74
2023/07/01 04:45:19;;;;;;;31.77;17.58;;;;;;;18.11;100.00;99666.53;5012846;28;20410;-74
2023/07/01 04:47:50;;;;;;;31.55;18.70;;;;;;;18.13;100.00;99660.94;5011150;28;20125;-74
2023/07/01 04:50:18;;;;;;;32.17;17.55;;;;;;;18.21;100.00;99659.72;5012851;28;20066;-74
2023/07/01 04:52:45;;;;;;;31.88;18.63;;;;;;;18.30;100.00;99664.22;5013067;28;20061;-74
2023/07/01 04:55:10;;;;;;;30.25;18.45;;;;;;;18.39;100.00;99663.75;5011638;28;20113;-76
2023/07/01 04:57:37;;;;;;;32.78;17.88;;;;;;;18.46;100.00;99665.97;5016000;28;20140;-76
2023/07/01 05:00:07;;;;;;;30.95;17.65;;;;;;;18.51;100.00;99659.28;5015539;28;20037;-77
2023/07/01 05:02:33;;;;;;;33.83;18.15;;;;;;;18.53;100.00;99650.78;4999497;28;20030;-78
2023/07/01 05:05:01;;;;;;;29.80;17.00;;;;;;;18.67;100.00;99660.19;5015303;28;20438;-76
2023/07/01 05:07:26;;;;;;;29.20;17.88;;;;;;;18.74;100.00;99662.34;5015286;28;20050;-76
2023/07/01 05:09:51;;;;;;;38.70;17.67;;;;;;;18.81;100.00;99663.78;5016431;28;20084;-75
2023/07/01 05:12:19;;;;;;;32.28;17.85;;;;;;;18.84;100.00;99663.41;5016222;28;20072;-74
2023/07/01 05:14:59;;;;;;;31.48;18.27;;;;;;;18.82;100.00;99648.72;5016419;28;20100;-77
2023/07/01 05:17:26;;;;;;;26.48;17.45;;;;;;;18.80;100.00;99647.75;5034051;28;20439;-76
2023/07/01 05:19:51;;;;;;;30.38;18.67;;;;;;;18.84;100.00;99656.84;5035512;28;20473;-78
2023/07/01 05:22:18;;;;;;;30.90;18.63;;;;;;;18.91;100.00;99654.03;5032872;28;20037;-78
2023/07/01 05:24:45;;;;;;;30.95;18.27;;;;;;;18.98;100.00;99661.97;5036190;28;20038;-77
2023/07/01 05:27:12;;;;;;;36.90;17.85;;;;;;;19.07;100.00;99657.78;5018167;28;20029;-76
2023/07/01 05:29:37;;;;;;;32.72;19.77;;;;;;;19.21;100.00;99655.59;5035450;28;20061;-77
2023/07/01 05:32:04;;;;;;;29.80;18.27;;;;;;;19.32;100.00;99664.75;5032561;28;20060;-77
2023/07/01 05:34:32;;;;;;;32.28;17.70;;;;;;;19.41;100.00;99663.47;5036109;28;20029;-78
2023/07/01 05:36:58;;;;;;;30.60;18.60;;;;;;;19.48;100.00;99657.69;5032655;28;20495;-80
2023/07/01 05:39:24;;;;;;;29.55;18.30;;;;;;;19.47;100.00;99661.16;4985347;28;20061;-78
2023/07/01 05:41:54;;;;;;;31.67;18.27;;;;;;;19.47;100.00;99650.34;5018124;28;20037;-78
2023/07/01 05:44:20;;;;;;;29.75;17.40;;;;;;;19.47;100.00;99652.47;5033490;28;20056;-76
2023/07/01 05:46:46;;;;;;;28.20;17.40;;;;;;;19.48;100.00;99660.59;5036290;28;20109;-77
2023/07/01 05:49:13;;;;;;;25.27;17.10;;;;;;;19.45;100.00;99653.06;5039964;28;20064;-78
2023/07/01 05:51:39;;;;;;;30.98;17.95;;;;;;;19.48;100.00;99660.59;5035849;28;20021;-79
2023/07/01 05:54:06;;;;;;;30.50;18.45;;;;;;;19.51;100.00;99661.59;5035736;28;20111;-77
2023/07/01 05:56:33;;;;;;;31.70;18.77;;;;;;;19.53;100.00;99659.66;5035850;28;20087;-77
2023/07/01 05:58:58;;;;;;;29.80;19.98;;;;;;;19.49;100.00;99653.44;5034640;28;20061;-77
2023/07/01 06:01:24;;;;;;;31.85;19.23;;;;;;;19.55;100.00;99659.09;5017095;28;20111;-77
2023/07/01 06:03:49;;;;;;;34.65;19.20;;;;;;;19.54;100.00;99660.44;5017374;28;20037;-76
2023/07/01 06:06:14;;;;;;;33.90;20.15;;;;;;;19.56;100.00;99660.63;5019254;28;20052;-76
2023/07/01 06:08:42;;;;;;;28.85;18.50;;;;;;;19.63;100.00;99653.31;5013173;28;20046;-76
2023/07/01 06:11:08;;;;;;;28.55;18.75;;;;;;;19.69;100.00;99648.91;5034095;28;20048;-77
2023/07/01 06:13:37;;;;;;;28.05;17.92;;;;;;;19.81;100.00;99646.44;5033729;28;20065;-77
2023/07/01 06:16:04;;;;;;;29.23;18.77;;;;;;;19.92;100.00;99661.38;5034875;28;20069;-77
2023/07/01 06:18:33;;;;;;;31.63;18.02;;;;;;;20.04;100.00;99653.13;5034880;28;20451;-76
2023/07/01 06:21:03;;;;;;;29.33;18.42;;;;;;;20.19;100.00;99658.97;5034574;28;20037;-75
2023/07/01 06:23:30;;;;;;;26.33;15.90;;;;;;;20.39;100.00;99646.47;5017493;28;20061;-76
2023/07/01 06:26:18;;;;;;;24.13;16.48;;;;;;;20.54;100.00;99644.91;5034281;28;20037;-77
2023/07/01 06:28:46;;;;;;;28.33;16.58;;;;;;;20.72;100.00;99652.50;5019344;28;20083;-76
2023/07/01 06:31:12;;;;;;;26.27;15.60;;;;;;;20.82;100.00;99656.38;5034207;28;20045;-76
2023/07/01 06:33:44;;;;;;;27.20;16.75;;;;;;;20.94;100.00;99653.88;5034414;28;20489;-74
2023/07/01 06:36:12;;;;;;;25.45;15.80;;;;;;;21.05;100.00;99650.53;5033875;28;20042;-76
2023/07/01 06:38:55;;;;;;;23.67;15.95;;;;;;;21.16;100.00;99650.16;5009913;28;20048;-77
2023/07/01 06:41:25;;;;;;;23.67;15.95;;;;;;;21.20;100.00;99648.41;5034285;28;20386;-76
2023/07/01 06:43:52;;;;;;;26.35;16.52;;;;;;;21.36;100.00;99651.28;5034040;28;20458;-76
2023/07/01 06:46:22;;;;;;;27.27;15.52;;;;;;;21.46;100.00;99649.34;5034236;28;20029;-75
2023/07/01 06:48:48;;;;;;;24.77;16.35;;;;;;;21.50;100.00;99655.53;5053925;28;20025;-75
2023/07/01 06:51:14;;;;;;;23.50;15.23;;;;;;;21.52;100.00;99658.63;5053653;28;20363;-76
2023/07/01 06:53:46;;;;;;;24.55;15.77;;;;;;;21.54;100.00;99656.69;5053807;28;20037;-76
2023/07/01 06:56:12;;;;;;;21.75;15.18;;;;;;;21.60;100.00;99651.44;5023858;28;20042;-77
2023/07/01 06:58:40;;;;;;;22.27;14.77;;;;;;;21.58;100.00;99656.28;4964153;28;20030;-76
2023/07/01 07:01:06;;;;;;;23.50;15.73;;;;;;;21.50;100.00;99652.63;4980484;28;20130;-76
2023/07/01 07:03:39;;;;;;;23.63;14.77;;;;;;;21.39;100.00;99647.97;4980509;28;20037;-76
2023/07/01 07:06:05;;;;;;;24.70;14.77;;;;;;;21.30;100.00;99645.66;4980591;28;20042;-77
2023/07/01 07:08:33;;;;;;;22.77;15.23;;;;;;;21.24;100.00;99648.78;4996725;28;20129;-76
2023/07/01 07:10:58;;;;;;;27.63;14.77;;;;;;;21.23;100.00;99646.47;5013877;28;20033;-77
2023/07/01 07:13:24;;;;;;;30.67;16.02;;;;;;;21.22;100.00;99644.91;4996573;28;20033;-76
2023/07/01 07:15:50;;;;;;;19.58;13.35;;;;;;;21.18;100.00;99648.22;4979812;28;20443;-78
2023/07/01 07:18:17;;;;;;;21.08;13.85;;;;;;;21.13;100.00;99660.03;4997043;28;20058;-75
2023/07/01 07:20:50;;;;;;;23.20;14.30;;;;;;;21.13;100.00;99651.31;5018254;28;20088;-75
2023/07/01 07:23:17;;;;;;;23.75;14.45;;;;;;;21.09;100.00;99650.94;5014373;28;20490;-79
2023/07/01 07:25:58;;;;;;;23.65;14.40;;;;;;;21.07;100.00;99644.94;5015668;28;20034;-76
2023/07/01 07:28:24;;;;;;;22.27;13.98;;;;;;;21.15;100.00;99660.22;5014753;28;20049;-76
2023/07/01 07:30:56;;;;;;;23.63;13.88;;;;;;;21.07;100.00;99657.34;5012275;28;20115;-76
2023/07/01 07:33:23;;;;;;;22.63;13.63;;;;;;;21.02;100.00;99652.50;5013065;28;20026;-78
2023/07/01 07:35:51;;;;;;;19.67;14.02;;;;;;;21.06;100.00;99652.88;4995407;28;20084;-74
2023/07/01 07:38:18;;;;;;;18.58;12.32;;;;;;;21.07;100.00;99657.34;4978981;28;20037;-77
2023/07/01 07:41:01;;;;;;;21.45;14.45;;;;;;;21.07;100.00;99650.75;4979230;28;20069;-75
2023/07/01 07:43:28;;;;;;;20.17;13.63;;;;;;;20.97;100.00;99646.88;4995901;28;20052;-72
2023/07/01 07:45:53;;;;;;;22.95;15.00;;;;;;;20.96;100.00;99645.31;4988160;28;20133;-74
2023/07/01 07:48:18;;;;;;;22.17;14.50;;;;;;;20.97;100.00;99647.66;5030059;28;20101;-75
2023/07/01 07:50:46;;;;;;;20.15;13.73;;;;;;;21.04;100.00;99643.97;5031334;28;20137;-74
2023/07/01 07:53:26;;;;;;;21.95;14.10;;;;;;;21.15;100.00;99639.88;5013622;28;20509;-74
2023/07/01 07:55:55;;;;;;;20.45;11.63;;;;;;;21.28;100.00;99644.72;5015583;28;20045;-74
2023/07/01 07:58:30;;;;;;;18.60;12.75;;;;;;;21.37;100.00;99649.91;5031694;28;20164;-73
2023/07/01 08:00:55;;;;;;;20.65;13.68;;;;;;;21.44;100.00;99643.28;5029526;28;20124;-73
2023/07/01 08:03:21;;;;;;;19.23;12.80;;;;;;;21.45;100.00;99636.94;5032890;28;20180;-74
2023/07/01 08:05:50;;;;;;;23.48;13.40;;;;;;;21.53;100.00;99646.41;5014622;28;20041;-73
2023/07/01 08:08:15;;;;;;;20.35;12.73;;;;;;;21.58;100.00;99641.75;5033146;28;20030;-73
2023/07/01 08:10:45;;;;;;;18.92;13.02;;;;;;;21.64;100.00;99639.38;5016563;28;20136;-73
2023/07/01 08:13:35;;;;;;;18.35;12.35;;;;;;;21.71;100.00;99635.69;5018125;28;20048;-74
2023/07/01 08:16:00;;;;;;;17.63;12.80;;;;;;;21.73;100.00;99635.84;5032401;28;20045;-72
2023/07/01 08:18:47;;;;;;;19.50;13.23;;;;;;;21.79;100.00;99639.31;5015079;28;20478;-72
2023/07/01 08:21:15;;;;;;;18.23;11.95;;;;;;;21.80;100.00;99632.16;5027315;28;20041;-71
2023/07/01 08:23:41;;;;;;;18.75;12.48;;;;;;;21.85;100.00;99618.75;5032258;28;20382;-72
2023/07/01 08:26:09;;;;;;;20.20;13.32;;;;;;;21.95;100.00;99632.09;5030274;28;20054;-73
2023/07/01 08:28:36;;;;;;;22.17;12.07;;;;;;;21.86;100.00;99635.63;5033131;28;20042;-74
2023/07/01 08:31:10;;;;;;;18.95;12.02;;;;;;;21.91;100.00;99628.03;5035595;28;20063;-73
2023/07/01 08:33:36;;;;;;;19.75;13.13;;;;;;;21.96;100.00;99627.81;5036675;28;20051;-72
2023/07/01 08:36:03;;;;;;;17.58;12.35;;;;;;;21.99;100.00;99632.44;5037061;28;20025;-72
2023/07/01 08:38:29;;;;;;;21.02;13.43;;;;;;;22.04;100.00;99631.44;5036565;28;20106;-74
2023/07/01 08:41:03;;;;;;;20.27;13.30;;;;;;;22.05;100.00;99635.13;5035034;28;20069;-74
2023/07/01 08:43:30;;;;;;;19.92;12.70;;;;;;;22.08;100.00;99634.72;5003655;28;20032;-75
2023/07/01 08:46:02;;;;;;;18.48;11.68;;;;;;;22.00;100.00;99630.31;5014173;28;20447;-74
2023/07/01 08:48:27;;;;;;;;;;;;;;;21.82;100.00;99634.47;5037031;28;20021;-74
2023/07/01 08:51:11;;;;;;;19.27;11.23;;;;;;;21.69;100.00;99629.69;5018852;28;19963;-73
2023/07/01 08:53:38;;;;;;;17.58;11.40;;;;;;;21.53;100.00;99628.94;5036670;28;20034;-74
2023/07/01 08:56:04;;;;;;;15.25;10.93;;;;;;;21.56;100.00;99629.94;5018862;28;20110;-73
2023/07/01 08:58:38;;;;;;;16.95;11.20;;;;;;;21.78;100.00;99625.41;5002641;28;20368;-72
2023/07/01 09:01:05;;;;;;;19.73;12.07;;;;;;;21.97;100.00;99628.59;5018827;28;20079;-74
2023/07/01 09:03:32;;;;;;;19.40;11.18;;;;;;;22.01;100.00;99623.13;5018699;28;20047;-74
2023/07/01 09:06:12;;;;;;;14.15;10.43;;;;;;;22.06;100.00;99625.06;5035829;28;20396;-76
2023/07/01 09:08:40;;;;;;;16.23;10.30;;;;;;;22.03;100.00;99621.16;5036263;28;20021;-75
2023/07/01 09:11:18;;;;;;;15.18;10.60;;;;;;;21.89;100.00;99625.72;5036249;28;20049;-75
2023/07/01 09:13:44;;;;;;;15.35;9.88;;;;;;;21.78;100.00;99629.06;5031140;28;20119;-74
2023/07/01 09:16:34;;;;;;;19.45;10.88;;;;;;;21.75;100.00;99626.56;5017469;28;20135;-75
2023/07/01 09:19:14;;;;;;;14.50;10.20;;;;;;;21.78;100.00;99626.13;5011355;28;20360;-72
2023/07/01 09:21:41;;;;;;;14.38;10.40;;;;;;;21.86;100.00;99626.13;5030619;28;20033;-73
2023/07/01 09:24:12;;;;;;;15.05;10.05;;;;;;;22.01;100.00;99626.03;5028442;28;20034;-74
2023/07/01 09:26:42;;;;;;;;;;;;;;;22.17;100.00;99627.53;5015091;28;20080;-73
2023/07/01 09:29:15;;;;;;;15.38;10.82;;;;;;;22.29;100.00;99613.28;5033553;28;19928;-74
2023/07/01 09:31:48;;;;;;;17.42;11.75;;;;;;;22.47;100.00;99603.28;5023543;28;20386;-74
2023/07/01 09:34:16;;;;;;;18.40;11.30;;;;;;;22.86;100.00;99599.44;5001151;28;20112;-73
2023/07/01 09:36:54;;;;;;;18.38;12.70;;;;;;;23.31;100.00;99606.19;5001491;28;20033;-73
2023/07/01 09:39:33;;;;;;;18.77;13.07;;;;;;;23.66;100.00;99593.16;5016763;28;20044;-74
2023/07/01 09:42:04;;;;;;;18.02;12.15;;;;;;;23.95;100.00;99587.50;5033531;28;20109;-75
2023/07/01 09:44:34;;;;;;;18.30;11.50;;;;;;;24.29;100.00;99585.91;5034559;28;20037;-74
2023/07/01 09:47:04;;;;;;;16.80;11.98;;;;;;;24.70;100.00;99584.06;5001611;28;20044;-75
2023/07/01 09:49:45;;;;;;;15.70;10.98;;;;;;;25.01;100.00;99576.31;5031941;28;20013;-74
2023/07/01 09:52:31;;;;;;;17.13;11.98;;;;;;;25.18;100.00;99578.34;5035994;28;20037;-75
2023/07/01 09:55:17;;;;;;;16.17;11.63;;;;;;;25.21;100.00;99572.03;5019547;28;20034;-74
2023/07/01 09:57:42;;;;;;;21.52;12.23;;;;;;;25.11;100.00;99561.72;5034581;28;20038;-74
2023/07/01 10:00:16;;;;;;;16.15;11.68;;;;;;;25.09;100.00;99567.44;4997887;28;20092;-75
2023/07/01 10:02:47;;;;;;;14.70;12.00;;;;;;;25.09;100.00;99565.25;5023359;28;20124;-74
2023/07/01 10:05:15;;;;;;;18.13;12.50;;;;;;;24.98;100.00;99562.94;5000832;28;20038;-75
2023/07/01 10:07:42;;;;;;;17.10;11.75;;;;;;;24.88;100.00;99550.47;5032750;28;20128;-75
2023/07/01 10:10:13;;;;;;;16.67;10.80;;;;;;;24.80;100.00;99549.78;5004420;28;20109;-75
2023/07/01 10:12:43;;;;;;;17.52;12.80;;;;;;;24.49;100.00;99550.34;5007839;28;20056;-76
2023/07/01 10:15:12;;;;;;;16.25;11.63;;;;;;;24.31;100.00;99548.09;5008332;28;20493;-75
2023/07/01 10:17:47;;;;;;;15.07;11.15;;;;;;;24.27;100.00;99536.84;5013525;28;20029;-74
2023/07/01 10:20:39;;;;;;;18.90;11.57;;;;;;;24.27;100.00;99536.84;5019498;28;20037;-75
2023/07/01 10:23:05;;;;;;;17.63;12.02;;;;;;;24.18;100.00;99538.34;5009903;28;20041;-73
2023/07/01 10:25:38;;;;;;;18.40;11.80;;;;;;;24.07;100.00;99538.13;5029392;28;20182;-75
2023/07/01 10:28:33;;;;;;;16.23;11.65;;;;;;;24.12;100.00;99540.00;5018011;28;20041;-75
2023/07/01 10:31:18;;;;;;;15.55;10.82;;;;;;;24.17;100.00;99541.84;5031510;28;20041;-74
2023/07/01 10:33:47;;;;;;;16.15;11.75;;;;;;;24.24;100.00;99538.09;5031934;28;20493;-73
2023/07/01 10:36:18;;;;;;;15.75;10.70;;;;;;;24.34;100.00;99538.13;5004270;28;20607;-74
2023/07/01 10:39:21;;;;;;;19.10;12.13;;;;;;;24.19;100.00;99530.34;4998226;28;20372;-76
2023/07/01 10:41:52;;;;;;;20.27;12.32;;;;;;;24.16;100.00;99528.63;5019058;28;20040;-76
2023/07/01 10:44:23;;;;;;;16.85;12.27;;;;;;;24.09;100.00;99521.56;5013874;28;20053;-75
2023/07/01 10:47:13;;;;;;;16.40;11.05;;;;;;;24.18;100.00;99514.97;5009640;28;20064;-73
2023/07/01 10:50:03;;;;;;;19.38;11.90;;;;;;;24.23;100.00;99521.16;4994886;28;20057;-74
2023/07/01 10:52:30;;;;;;;15.43;10.73;;;;;;;24.03;100.00;99497.69;5028253;28;20191;-75
2023/07/01 10:54:59;;;;;;;19.65;12.25;;;;;;;24.28;100.00;99506.28;5008816;28;20033;-75
2023/07/01 10:57:27;;;;;;;16.73;11.65;;;;;;;24.48;100.00;99495.44;5020118;28;20037;-75
2023/07/01 11:00:33;;;;;;;20.08;11.63;;;;;;;24.62;100.00;99506.06;5022260;28;20208;-74
2023/07/01 11:03:01;;;;;;;15.77;10.73;;;;;;;24.24;100.00;99493.50;5032038;28;20427;-75
2023/07/01 11:05:29;;;;;;;19.75;10.90;;;;;;;24.13;100.00;99500.66;5033796;28;20045;-74
2023/07/01 11:08:16;;;;;;;14.40;9.90;;;;;;;23.84;100.00;99485.16;5026542;28;20104;-76
2023/07/01 11:10:43;;;;;;;12.15;8.75;;;;;;;23.75;100.00;99484.47;5025032;28;20037;-74
2023/07/01 11:13:12;;;;;;;14.07;9.63;;;;;;;23.65;100.00;99492.44;5019121;28;20109;-74
2023/07/01 11:15:41;;;;;;;16.05;9.48;;;;;;;23.56;100.00;99475.63;4993512;28;20045;-73
2023/07/01 11:18:09;;;;;;;13.65;9.63;;;;;;;23.42;100.00;99479.50;5030516;28;20033;-73
2023/07/01 11:20:48;;;;;;;14.13;9.80;;;;;;;23.30;100.00;99488.03;5032521;28;20113;-72